sensor_id;sensor_type;location;lat;lon;timestamp;pressure;altitude;pressure_sealevel;temperature;humidity
46506;BME280;32220;49.808;9.968;2022-09-09T00:02:18;98465.41;;;17.07;61.77
46506;BME280;32220;49.808;9.968;2022-09-09T00:04:55;98468.41;;;17.04;61.92
46506;BME280;32220;49.808;9.968;2022-09-09T00:07:32;98473.34;;;16.99;62.09
46506;BME280;32220;49.808;9.968;2022-09-09T00:10:14;98476.31;;;16.96;62.33
46506;BME280;32220;49.808;9.968;2022-09-09T00:12:52;98469.13;;;16.96;62.40
46506;BME280;32220;49.808;9.968;2022-09-09T00:15:25;98460.72;;;16.91;62.34
46506;BME280;32220;49.808;9.968;2022-09-09T00:17:57;98468.69;;;17.01;62.31
46506;BME280;32220;49.808;9.968;2022-09-09T00:20:31;98464.75;;;17.05;62.25
46506;BME280;32220;49.808;9.968;2022-09-09T00:23:04;98461.63;;;17.09;62.69
46506;BME280;32220;49.808;9.968;2022-09-09T00:25:40;98465.84;;;17.12;61.95
46506;BME280;32220;49.808;9.968;2022-09-09T00:28:16;98486.22;;;17.22;61.68
46506;BME280;32220;49.808;9.968;2022-09-09T00:30:46;98476.25;;;17.15;62.27
46506;BME280;32220;49.808;9.968;2022-09-09T00:33:16;98473.59;;;17.15;63.25
46506;BME280;32220;49.808;9.968;2022-09-09T00:35:49;98465.59;;;17.05;65.26
46506;BME280;32220;49.808;9.968;2022-09-09T00:38:19;98446.50;;;16.91;66.54
46506;BME280;32220;49.808;9.968;2022-09-09T00:40:52;98441.44;;;16.87;67.53
46506;BME280;32220;49.808;9.968;2022-09-09T00:43:27;98436.63;;;16.81;69.20
46506;BME280;32220;49.808;9.968;2022-09-09T00:46:10;98399.53;;;16.59;69.30
46506;BME280;32220;49.808;9.968;2022-09-09T00:48:50;98427.38;;;16.76;69.57
46506;BME280;32220;49.808;9.968;2022-09-09T00:51:26;98436.38;;;16.75;69.67
46506;BME280;32220;49.808;9.968;2022-09-09T00:56:54;98420.63;;;16.72;69.16
46506;BME280;32220;49.808;9.968;2022-09-09T00:59:32;98426.81;;;16.72;69.21
46506;BME280;32220;49.808;9.968;2022-09-09T01:02:07;98406.31;;;16.63;69.43
46506;BME280;32220;49.808;9.968;2022-09-09T01:04:42;98433.84;;;16.73;70.03
46506;BME280;32220;49.808;9.968;2022-09-09T01:07:16;98431.03;;;16.75;70.11
46506;BME280;32220;49.808;9.968;2022-09-09T01:09:52;98426.25;;;16.78;71.24
46506;BME280;32220;49.808;9.968;2022-09-09T01:12:38;98435.84;;;16.81;70.75
46506;BME280;32220;49.808;9.968;2022-09-09T01:15:14;98444.66;;;16.81;71.08
46506;BME280;32220;49.808;9.968;2022-09-09T01:17:54;98442.00;;;16.81;70.89
46506;BME280;32220;49.808;9.968;2022-09-09T01:20:30;98441.84;;;16.83;70.32
46506;BME280;32220;49.808;9.968;2022-09-09T01:23:16;98442.28;;;16.88;70.15
46506;BME280;32220;49.808;9.968;2022-09-09T01:26:17;98440.28;;;16.90;69.50
46506;BME280;32220;49.808;9.968;2022-09-09T01:28:48;98442.00;;;16.91;69.23
46506;BME280;32220;49.808;9.968;2022-09-09T01:31:23;98431.81;;;16.95;69.27
46506;BME280;32220;49.808;9.968;2022-09-09T01:33:52;98441.94;;;17.01;68.82
46506;BME280;32220;49.808;9.968;2022-09-09T01:36:28;98438.56;;;16.99;68.75
46506;BME280;32220;49.808;9.968;2022-09-09T01:38:57;98445.03;;;17.06;68.81
46506;BME280;32220;49.808;9.968;2022-09-09T01:41:27;98445.84;;;17.06;68.91
46506;BME280;32220;49.808;9.968;2022-09-09T01:44:04;98442.19;;;17.07;68.82
46506;BME280;32220;49.808;9.968;2022-09-09T01:46:34;98452.59;;;17.10;68.87
46506;BME280;32220;49.808;9.968;2022-09-09T01:49:05;98450.63;;;17.12;68.79
46506;BME280;32220;49.808;9.968;2022-09-09T01:51:35;98428.97;;;17.06;68.34
46506;BME280;32220;49.808;9.968;2022-09-09T01:54:07;98449.50;;;17.15;68.30
46506;BME280;32220;49.808;9.968;2022-09-09T01:56:44;98436.00;;;17.07;68.97
46506;BME280;32220;49.808;9.968;2022-09-09T01:59:27;98442.16;;;17.17;69.20
46506;BME280;32220;49.808;9.968;2022-09-09T02:02:09;98433.72;;;17.12;68.66
46506;BME280;32220;49.808;9.968;2022-09-09T02:04:44;98456.06;;;17.20;68.71
46506;BME280;32220;49.808;9.968;2022-09-09T02:07:31;98437.50;;;17.19;68.87
46506;BME280;32220;49.808;9.968;2022-09-09T02:10:09;98448.31;;;17.27;68.53
46506;BME280;32220;49.808;9.968;2022-09-09T02:12:46;98447.34;;;17.28;68.51
46506;BME280;32220;49.808;9.968;2022-09-09T02:15:21;98446.91;;;17.23;68.71
46506;BME280;32220;49.808;9.968;2022-09-09T02:17:51;98447.53;;;17.17;68.50
46506;BME280;32220;49.808;9.968;2022-09-09T02:20:20;98446.25;;;17.11;68.50
46506;BME280;32220;49.808;9.968;2022-09-09T02:22:53;98446.69;;;17.07;69.05
46506;BME280;32220;49.808;9.968;2022-09-09T02:25:28;98439.97;;;17.03;69.49
46506;BME280;32220;49.808;9.968;2022-09-09T02:28:07;98442.94;;;17.00;69.31
46506;BME280;32220;49.808;9.968;2022-09-09T02:30:38;98435.19;;;16.97;69.54
46506;BME280;32220;49.808;9.968;2022-09-09T02:33:08;98444.53;;;16.93;69.35
46506;BME280;32220;49.808;9.968;2022-09-09T02:35:45;98448.56;;;16.97;69.33
46506;BME280;32220;49.808;9.968;2022-09-09T02:38:20;98436.88;;;16.98;69.52
46506;BME280;32220;49.808;9.968;2022-09-09T02:40:56;98443.06;;;16.98;69.58
46506;BME280;32220;49.808;9.968;2022-09-09T02:43:30;98444.19;;;16.96;69.13
46506;BME280;32220;49.808;9.968;2022-09-09T02:46:04;98441.53;;;16.96;69.88
46506;BME280;32220;49.808;9.968;2022-09-09T02:48:44;98435.19;;;16.97;69.91
46506;BME280;32220;49.808;9.968;2022-09-09T02:51:19;98439.13;;;17.02;69.95
46506;BME280;32220;49.808;9.968;2022-09-09T02:53:57;98426.88;;;17.00;69.60
46506;BME280;32220;49.808;9.968;2022-09-09T02:56:30;98430.53;;;16.99;69.97
46506;BME280;32220;49.808;9.968;2022-09-09T02:59:04;98421.97;;;16.95;69.95
46506;BME280;32220;49.808;9.968;2022-09-09T03:01:34;98424.09;;;16.92;69.72
46506;BME280;32220;49.808;9.968;2022-09-09T03:04:03;98440.00;;;16.93;69.53
46506;BME280;32220;49.808;9.968;2022-09-09T03:06:31;98446.22;;;16.94;69.43
46506;BME280;32220;49.808;9.968;2022-09-09T03:09:08;98444.53;;;16.93;69.79
46506;BME280;32220;49.808;9.968;2022-09-09T03:11:37;98450.41;;;16.96;69.65
46506;BME280;32220;49.808;9.968;2022-09-09T03:14:07;98450.13;;;16.99;69.44
46506;BME280;32220;49.808;9.968;2022-09-09T03:16:38;98441.94;;;17.01;69.39
46506;BME280;32220;49.808;9.968;2022-09-09T03:19:06;98436.31;;;17.04;69.57
46506;BME280;32220;49.808;9.968;2022-09-09T03:21:34;98447.53;;;17.07;69.25
46506;BME280;32220;49.808;9.968;2022-09-09T03:24:02;98450.06;;;17.09;69.42
46506;BME280;32220;49.808;9.968;2022-09-09T03:26:31;98451.47;;;17.13;69.09
46506;BME280;32220;49.808;9.968;2022-09-09T03:29:00;98448.66;;;17.14;69.15
46506;BME280;32220;49.808;9.968;2022-09-09T03:31:31;98444.00;;;17.16;69.12
46506;BME280;32220;49.808;9.968;2022-09-09T03:33:59;98439.19;;;17.20;69.29
46506;BME280;32220;49.808;9.968;2022-09-09T03:36:30;98443.53;;;17.21;69.00
46506;BME280;32220;49.808;9.968;2022-09-09T03:38:57;98436.50;;;17.20;68.98
46506;BME280;32220;49.808;9.968;2022-09-09T03:41:30;98431.75;;;17.14;69.28
46506;BME280;32220;49.808;9.968;2022-09-09T03:43:59;98431.06;;;17.12;69.39
46506;BME280;32220;49.808;9.968;2022-09-09T03:46:31;98423.03;;;17.12;69.04
46506;BME280;32220;49.808;9.968;2022-09-09T03:49:00;98428.38;;;17.12;69.22
46506;BME280;32220;49.808;9.968;2022-09-09T03:51:29;98424.72;;;17.13;69.04
46506;BME280;32220;49.808;9.968;2022-09-09T03:53:57;98421.06;;;17.14;69.03
46506;BME280;32220;49.808;9.968;2022-09-09T03:56:27;98426.41;;;17.14;68.82
46506;BME280;32220;49.808;9.968;2022-09-09T03:58:56;98417.38;;;17.15;69.06
46506;BME280;32220;49.808;9.968;2022-09-09T04:01:26;98417.38;;;17.15;69.02
46506;BME280;32220;49.808;9.968;2022-09-09T04:03:57;98414.72;;;17.15;68.81
46506;BME280;32220;49.808;9.968;2022-09-09T04:06:25;98400.53;;;17.05;68.53
46506;BME280;32220;49.808;9.968;2022-09-09T04:08:53;98422.75;;;17.15;68.38
46506;BME280;32220;49.808;9.968;2022-09-09T04:11:22;98368.78;;;16.82;68.72
46506;BME280;32220;49.808;9.968;2022-09-09T04:13:52;98426.13;;;17.17;68.77
46506;BME280;32220;49.808;9.968;2022-09-09T04:16:20;98421.44;;;17.19;68.81
46506;BME280;32220;49.808;9.968;2022-09-09T04:18:48;98425.81;;;17.20;68.96
46506;BME280;32220;49.808;9.968;2022-09-09T04:21:18;98431.00;;;17.21;68.56
46506;BME280;32220;49.808;9.968;2022-09-09T04:23:46;98430.31;;;17.19;68.68
46506;BME280;32220;49.808;9.968;2022-09-09T04:26:14;98435.41;;;17.13;68.91
46506;BME280;32220;49.808;9.968;2022-09-09T04:28:43;98440.50;;;17.06;69.23
46506;BME280;32220;49.808;9.968;2022-09-09T04:31:18;98438.56;;;16.99;69.58
46506;BME280;32220;49.808;9.968;2022-09-09T04:33:49;98438.84;;;16.96;69.82
46506;BME280;32220;49.808;9.968;2022-09-09T04:36:19;98444.66;;;16.91;69.50
46506;BME280;32220;49.808;9.968;2022-09-09T04:38:48;98437.75;;;16.88;70.19
46506;BME280;32220;49.808;9.968;2022-09-09T04:41:16;98431.00;;;16.84;69.77
46506;BME280;32220;49.808;9.968;2022-09-09T04:43:47;98436.78;;;16.90;70.21
46506;BME280;32220;49.808;9.968;2022-09-09T04:46:16;98438.47;;;16.91;69.83
46506;BME280;32220;49.808;9.968;2022-09-09T04:48:44;98443.69;;;16.92;69.52
46506;BME280;32220;49.808;9.968;2022-09-09T04:51:13;98442.41;;;16.86;69.32
46506;BME280;32220;49.808;9.968;2022-09-09T04:53:44;98456.91;;;16.94;69.51
46506;BME280;32220;49.808;9.968;2022-09-09T04:56:15;98446.34;;;16.92;69.55
46506;BME280;32220;49.808;9.968;2022-09-09T04:58:48;98449.31;;;16.89;69.33
46506;BME280;32220;49.808;9.968;2022-09-09T05:01:18;98457.75;;;16.84;69.49
46506;BME280;32220;49.808;9.968;2022-09-09T05:03:49;98449.03;;;16.82;69.71
46506;BME280;32220;49.808;9.968;2022-09-09T05:06:22;98433.56;;;16.76;69.39
46506;BME280;32220;49.808;9.968;2022-09-09T05:08:57;98450.00;;;16.91;69.43
46506;BME280;32220;49.808;9.968;2022-09-09T05:11:30;98453.63;;;17.00;69.19
46506;BME280;32220;49.808;9.968;2022-09-09T05:14:09;98464.16;;;17.11;69.09
46506;BME280;32220;49.808;9.968;2022-09-09T05:16:38;98459.91;;;17.18;69.19
46506;BME280;32220;49.808;9.968;2022-09-09T05:19:06;98447.66;;;17.15;68.93
46506;BME280;32220;49.808;9.968;2022-09-09T05:22:03;98469.44;;;17.30;68.75
46506;BME280;32220;49.808;9.968;2022-09-09T05:24:40;98474.34;;;17.35;68.54
46506;BME280;32220;49.808;9.968;2022-09-09T05:27:09;98457.06;;;17.29;68.22
46506;BME280;32220;49.808;9.968;2022-09-09T05:29:39;98477.94;;;17.43;68.31
46506;BME280;32220;49.808;9.968;2022-09-09T05:32:11;98477.38;;;17.49;68.30
46506;BME280;32220;49.808;9.968;2022-09-09T05:34:39;98490.00;;;17.57;68.12
46506;BME280;32220;49.808;9.968;2022-09-09T05:37:07;98488.19;;;17.67;67.84
46506;BME280;32220;49.808;9.968;2022-09-09T05:39:36;98487.81;;;17.80;67.53
46506;BME280;32220;49.808;9.968;2022-09-09T05:42:06;98494.47;;;17.93;67.52
46506;BME280;32220;49.808;9.968;2022-09-09T05:44:34;98499.78;;;18.03;67.22
46506;BME280;32220;49.808;9.968;2022-09-09T05:47:03;98490.97;;;18.11;66.78
46506;BME280;32220;49.808;9.968;2022-09-09T05:49:31;98495.75;;;18.17;66.71
46506;BME280;32220;49.808;9.968;2022-09-09T05:51:59;98500.34;;;18.24;66.52
46506;BME280;32220;49.808;9.968;2022-09-09T05:54:27;98511.47;;;18.29;66.25
46506;BME280;32220;49.808;9.968;2022-09-09T05:56:55;98504.78;;;18.34;66.30
46506;BME280;32220;49.808;9.968;2022-09-09T05:59:24;98502.63;;;18.37;66.34
46506;BME280;32220;49.808;9.968;2022-09-09T06:01:55;98506.53;;;18.43;65.90
46506;BME280;32220;49.808;9.968;2022-09-09T06:04:29;98505.22;;;18.47;66.03
46506;BME280;32220;49.808;9.968;2022-09-09T06:06:56;98506.31;;;18.54;65.66
46506;BME280;32220;49.808;9.968;2022-09-09T06:09:25;98510.09;;;18.61;65.85
46506;BME280;32220;49.808;9.968;2022-09-09T06:11:53;98508.09;;;18.63;65.20
46506;BME280;32220;49.808;9.968;2022-09-09T06:14:22;98510.81;;;18.71;64.92
46506;BME280;32220;49.808;9.968;2022-09-09T06:16:54;98507.69;;;18.58;65.75
46506;BME280;32220;49.808;9.968;2022-09-09T06:19:26;98507.91;;;18.47;65.99
46506;BME280;32220;49.808;9.968;2022-09-09T06:21:56;98495.66;;;18.44;67.01
46506;BME280;32220;49.808;9.968;2022-09-09T06:24:26;98502.00;;;18.43;67.14
46506;BME280;32220;49.808;9.968;2022-09-09T06:26:56;98505.16;;;18.39;67.18
46506;BME280;32220;49.808;9.968;2022-09-09T06:29:28;98506.84;;;18.40;67.17
46506;BME280;32220;49.808;9.968;2022-09-09T06:31:57;98504.88;;;18.42;67.93
46506;BME280;32220;49.808;9.968;2022-09-09T06:34:27;98510.53;;;18.39;67.20
46506;BME280;32220;49.808;9.968;2022-09-09T06:36:57;98509.53;;;18.40;66.78
46506;BME280;32220;49.808;9.968;2022-09-09T06:39:28;98511.44;;;18.47;67.00
46506;BME280;32220;49.808;9.968;2022-09-09T06:41:56;98516.03;;;18.55;66.75
46506;BME280;32220;49.808;9.968;2022-09-09T06:44:46;98508.94;;;18.63;66.72
46506;BME280;32220;49.808;9.968;2022-09-09T06:47:25;98519.56;;;18.73;66.05
46506;BME280;32220;49.808;9.968;2022-09-09T06:49:55;98514.66;;;18.86;66.03
46506;BME280;32220;49.808;9.968;2022-09-09T06:52:23;98508.03;;;18.98;65.84
46506;BME280;32220;49.808;9.968;2022-09-09T06:54:51;98511.66;;;19.15;65.55
46506;BME280;32220;49.808;9.968;2022-09-09T06:57:19;98513.28;;;19.34;65.06
46506;BME280;32220;49.808;9.968;2022-09-09T06:59:47;98515.25;;;19.50;64.53
46506;BME280;32220;49.808;9.968;2022-09-09T07:02:15;98519.28;;;19.54;64.36
46506;BME280;32220;49.808;9.968;2022-09-09T07:04:44;98521.81;;;19.55;64.20
46506;BME280;32220;49.808;9.968;2022-09-09T07:07:12;98510.81;;;19.75;64.23
46506;BME280;32220;49.808;9.968;2022-09-09T07:09:41;98484.03;;;20.07;62.91
46506;BME280;32220;49.808;9.968;2022-09-09T07:12:12;98529.34;;;20.93;61.34
46506;BME280;32220;49.808;9.968;2022-09-09T07:14:46;98538.53;;;21.55;59.87
46506;BME280;32220;49.808;9.968;2022-09-09T07:17:14;98536.75;;;21.78;58.69
46506;BME280;32220;49.808;9.968;2022-09-09T07:19:42;98534.44;;;21.67;57.83
46506;BME280;32220;49.808;9.968;2022-09-09T07:22:11;98539.69;;;21.61;57.71
46506;BME280;32220;49.808;9.968;2022-09-09T07:24:40;98532.00;;;21.49;57.47
46506;BME280;32220;49.808;9.968;2022-09-09T07:27:08;98544.25;;;21.60;57.42
46506;BME280;32220;49.808;9.968;2022-09-09T07:29:36;98543.59;;;21.58;57.13
46506;BME280;32220;49.808;9.968;2022-09-09T07:32:04;98536.06;;;21.84;56.58
46506;BME280;32220;49.808;9.968;2022-09-09T07:34:36;98542.88;;;22.42;56.27
46506;BME280;32220;49.808;9.968;2022-09-09T07:37:05;98556.19;;;23.12;54.99
46506;BME280;32220;49.808;9.968;2022-09-09T07:39:35;98551.81;;;23.78;53.85
46506;BME280;32220;49.808;9.968;2022-09-09T07:42:03;98565.72;;;24.55;51.42
46506;BME280;32220;49.808;9.968;2022-09-09T07:44:32;98567.59;;;24.97;49.67
46506;BME280;32220;49.808;9.968;2022-09-09T07:47:08;98574.75;;;25.82;48.39
46506;BME280;32220;49.808;9.968;2022-09-09T07:49:41;98585.63;;;26.91;46.37
46506;BME280;32220;49.808;9.968;2022-09-09T07:52:09;98589.75;;;26.73;44.91
46506;BME280;32220;49.808;9.968;2022-09-09T07:54:41;98586.13;;;26.46;45.43
46506;BME280;32220;49.808;9.968;2022-09-09T07:57:10;98587.59;;;26.01;44.83
46506;BME280;32220;49.808;9.968;2022-09-09T07:59:38;98587.22;;;25.70;45.53
46506;BME280;32220;49.808;9.968;2022-09-09T08:02:09;98572.03;;;25.82;45.50
46506;BME280;32220;49.808;9.968;2022-09-09T08:04:37;98575.03;;;26.35;45.38
46506;BME280;32220;49.808;9.968;2022-09-09T08:07:05;98593.50;;;26.59;44.13
46506;BME280;32220;49.808;9.968;2022-09-09T08:09:41;98601.28;;;26.75;43.86
46506;BME280;32220;49.808;9.968;2022-09-09T08:12:19;98607.44;;;27.17;43.18
46506;BME280;32220;49.808;9.968;2022-09-09T08:14:47;98593.84;;;27.17;43.01
46506;BME280;32220;49.808;9.968;2022-09-09T08:17:17;98603.66;;;26.98;42.94
46506;BME280;32220;49.808;9.968;2022-09-09T08:19:45;98603.44;;;27.00;42.63
46506;BME280;32220;49.808;9.968;2022-09-09T08:22:18;98610.16;;;27.17;43.04
46506;BME280;32220;49.808;9.968;2022-09-09T08:24:47;98599.31;;;27.43;43.02
46506;BME280;32220;49.808;9.968;2022-09-09T08:27:15;98609.72;;;27.86;42.23
46506;BME280;32220;49.808;9.968;2022-09-09T08:29:42;98626.81;;;28.33;40.06
46506;BME280;32220;49.808;9.968;2022-09-09T08:32:10;98620.03;;;28.55;39.12
46506;BME280;32220;49.808;9.968;2022-09-09T08:34:39;98627.81;;;28.45;39.40
46506;BME280;32220;49.808;9.968;2022-09-09T08:37:13;98629.72;;;28.38;38.92
46506;BME280;32220;49.808;9.968;2022-09-09T08:39:43;98637.94;;;28.82;38.56
46506;BME280;32220;49.808;9.968;2022-09-09T08:42:28;98657.28;;;31.33;34.67
46506;BME280;32220;49.808;9.968;2022-09-09T08:45:18;98665.34;;;32.74;32.66
46506;BME280;32220;49.808;9.968;2022-09-09T08:47:56;98681.19;;;34.41;30.53
46506;BME280;32220;49.808;9.968;2022-09-09T08:50:29;98679.97;;;34.15;30.10
46506;BME280;32220;49.808;9.968;2022-09-09T08:53:05;98667.81;;;34.11;30.53
46506;BME280;32220;49.808;9.968;2022-09-09T08:55:44;98670.03;;;34.14;30.42
46506;BME280;32220;49.808;9.968;2022-09-09T08:58:18;98673.72;;;34.58;29.51
46506;BME280;32220;49.808;9.968;2022-09-09T09:01:00;98690.31;;;36.25;28.07
46506;BME280;32220;49.808;9.968;2022-09-09T09:03:38;98699.19;;;38.13;26.28
46506;BME280;32220;49.808;9.968;2022-09-09T09:06:23;98706.78;;;39.85;23.80
46506;BME280;32220;49.808;9.968;2022-09-09T09:09:00;98707.56;;;40.77;22.61
46506;BME280;32220;49.808;9.968;2022-09-09T09:11:35;98707.00;;;40.22;23.64
46506;BME280;32220;49.808;9.968;2022-09-09T09:14:09;98700.78;;;39.29;23.36
46506;BME280;32220;49.808;9.968;2022-09-09T09:16:52;98689.22;;;38.06;24.46
46506;BME280;32220;49.808;9.968;2022-09-09T09:19:22;98673.06;;;37.12;25.48
46506;BME280;32220;49.808;9.968;2022-09-09T09:21:57;98680.28;;;36.09;26.38
46506;BME280;32220;49.808;9.968;2022-09-09T09:24:33;98664.94;;;35.05;27.42
46506;BME280;32220;49.808;9.968;2022-09-09T09:27:12;98652.09;;;34.45;28.66
46506;BME280;32220;49.808;9.968;2022-09-09T09:29:47;98651.59;;;34.10;29.10
46506;BME280;32220;49.808;9.968;2022-09-09T09:32:18;98646.94;;;33.94;29.19
46506;BME280;32220;49.808;9.968;2022-09-09T09:34:49;98641.09;;;33.73;29.54
46506;BME280;32220;49.808;9.968;2022-09-09T09:37:22;98609.97;;;33.34;29.76
46506;BME280;32220;49.808;9.968;2022-09-09T09:39:55;98630.66;;;32.97;30.62
46506;BME280;32220;49.808;9.968;2022-09-09T09:42:23;98625.31;;;32.50;31.08
46506;BME280;32220;49.808;9.968;2022-09-09T09:44:56;98622.88;;;32.25;31.85
46506;BME280;32220;49.808;9.968;2022-09-09T09:47:34;98614.41;;;31.80;32.58
46506;BME280;32220;49.808;9.968;2022-09-09T09:50:17;98611.13;;;31.25;32.76
46506;BME280;32220;49.808;9.968;2022-09-09T09:52:54;98604.34;;;30.67;33.24
46506;BME280;32220;49.808;9.968;2022-09-09T09:55:24;98582.53;;;30.13;33.69
46506;BME280;32220;49.808;9.968;2022-09-09T09:57:53;98587.06;;;29.57;34.04
46506;BME280;32220;49.808;9.968;2022-09-09T10:00:24;98588.31;;;29.05;34.19
46506;BME280;32220;49.808;9.968;2022-09-09T10:03:01;98581.50;;;28.89;34.74
46506;BME280;32220;49.808;9.968;2022-09-09T10:05:35;98585.94;;;28.77;34.78
46506;BME280;32220;49.808;9.968;2022-09-09T10:08:13;98584.50;;;28.75;35.32
46506;BME280;32220;49.808;9.968;2022-09-09T10:10:51;98578.38;;;28.86;35.86
46506;BME280;32220;49.808;9.968;2022-09-09T10:13:27;98582.31;;;29.71;34.14
46506;BME280;32220;49.808;9.968;2022-09-09T10:16:08;98591.69;;;30.55;32.84
46506;BME280;32220;49.808;9.968;2022-09-09T10:18:52;98603.97;;;31.24;31.21
46506;BME280;32220;49.808;9.968;2022-09-09T10:21:37;98601.09;;;31.72;30.71
46506;BME280;32220;49.808;9.968;2022-09-09T10:27:17;98593.97;;;30.58;31.28
46506;BME280;32220;49.808;9.968;2022-09-09T10:30:05;98582.31;;;30.14;31.86
46506;BME280;32220;49.808;9.968;2022-09-09T10:32:40;98572.94;;;29.85;31.64
46506;BME280;32220;49.808;9.968;2022-09-09T10:35:12;98585.06;;;29.46;32.26
46506;BME280;32220;49.808;9.968;2022-09-09T10:37:54;98586.28;;;28.94;32.95
46506;BME280;32220;49.808;9.968;2022-09-09T10:40:31;98574.00;;;28.40;34.03
46506;BME280;32220;49.808;9.968;2022-09-09T10:43:09;98598.63;;;27.94;35.63
46506;BME280;32220;49.808;9.968;2022-09-09T10:45:47;98651.34;;;27.14;39.55
46506;BME280;32220;49.808;9.968;2022-09-09T10:48:28;98624.13;;;24.86;46.57
46506;BME280;32220;49.808;9.968;2022-09-09T10:51:09;98571.44;;;22.60;52.38
46506;BME280;32220;49.808;9.968;2022-09-09T10:53:52;98565.34;;;21.40;54.13
46506;BME280;32220;49.808;9.968;2022-09-09T10:56:21;98546.34;;;20.61;55.89
46506;BME280;32220;49.808;9.968;2022-09-09T10:58:53;98581.56;;;20.33;57.44
46506;BME280;32220;49.808;9.968;2022-09-09T11:01:27;98573.75;;;20.06;58.17
46506;BME280;32220;49.808;9.968;2022-09-09T11:04:01;98540.09;;;19.86;59.64
46506;BME280;32220;49.808;9.968;2022-09-09T11:06:37;98559.63;;;20.04;60.67
46506;BME280;32220;49.808;9.968;2022-09-09T11:09:10;98563.34;;;20.11;61.36
46506;BME280;32220;49.808;9.968;2022-09-09T11:11:48;98543.53;;;20.20;62.17
46506;BME280;32220;49.808;9.968;2022-09-09T11:14:25;98558.47;;;20.97;62.81
46506;BME280;32220;49.808;9.968;2022-09-09T11:16:58;98549.81;;;22.06;62.36
46506;BME280;32220;49.808;9.968;2022-09-09T11:19:32;98560.22;;;22.71;60.25
46506;BME280;32220;49.808;9.968;2022-09-09T11:22:05;98569.81;;;23.19;58.71
46506;BME280;32220;49.808;9.968;2022-09-09T11:24:37;98561.78;;;23.63;58.13
46506;BME280;32220;49.808;9.968;2022-09-09T11:27:10;98557.16;;;24.37;57.84
46506;BME280;32220;49.808;9.968;2022-09-09T11:30:19;98562.91;;;25.90;55.53
46506;BME280;32220;49.808;9.968;2022-09-09T11:32:59;98565.13;;;26.75;53.48
46506;BME280;32220;49.808;9.968;2022-09-09T11:35:41;98574.53;;;27.98;51.26
46506;BME280;32220;49.808;9.968;2022-09-09T11:38:19;98594.38;;;30.25;45.36
46506;BME280;32220;49.808;9.968;2022-09-09T11:40:55;98609.66;;;32.22;41.27
46506;BME280;32220;49.808;9.968;2022-09-09T11:43:29;98615.25;;;34.08;37.87
46506;BME280;32220;49.808;9.968;2022-09-09T11:45:59;98609.94;;;35.69;37.30
46506;BME280;32220;49.808;9.968;2022-09-09T11:48:34;98626.16;;;37.22;34.05
46506;BME280;32220;49.808;9.968;2022-09-09T11:51:06;98652.00;;;38.73;29.96
46506;BME280;32220;49.808;9.968;2022-09-09T11:53:35;98611.63;;;39.90;29.93
46506;BME280;32220;49.808;9.968;2022-09-09T11:56:09;98629.41;;;41.27;28.21
46506;BME280;32220;49.808;9.968;2022-09-09T11:58:42;98634.50;;;41.57;27.48
46506;BME280;32220;49.808;9.968;2022-09-09T12:01:16;98624.56;;;40.95;27.01
46506;BME280;32220;49.808;9.968;2022-09-09T12:04:07;98632.19;;;38.36;27.63
46506;BME280;32220;49.808;9.968;2022-09-09T12:06:44;98617.16;;;35.75;30.69
46506;BME280;32220;49.808;9.968;2022-09-09T12:09:23;98587.75;;;33.86;34.13
46506;BME280;32220;49.808;9.968;2022-09-09T12:11:52;98568.53;;;32.62;37.65
46506;BME280;32220;49.808;9.968;2022-09-09T12:14:21;98548.94;;;31.67;39.38
46506;BME280;32220;49.808;9.968;2022-09-09T12:16:51;98541.31;;;30.92;40.72
46506;BME280;32220;49.808;9.968;2022-09-09T12:19:21;98541.84;;;30.71;40.94
46506;BME280;32220;49.808;9.968;2022-09-09T12:21:58;98555.50;;;33.14;38.25
46506;BME280;32220;49.808;9.968;2022-09-09T12:24:37;98568.75;;;35.84;34.70
46506;BME280;32220;49.808;9.968;2022-09-09T12:27:14;98594.97;;;37.52;31.05
46506;BME280;32220;49.808;9.968;2022-09-09T12:29:53;98589.66;;;38.12;29.30
46506;BME280;32220;49.808;9.968;2022-09-09T12:32:24;98578.97;;;36.41;29.49
46506;BME280;32220;49.808;9.968;2022-09-09T12:34:55;98580.06;;;34.70;31.58
46506;BME280;32220;49.808;9.968;2022-09-09T12:37:29;98570.91;;;33.15;32.29
46506;BME280;32220;49.808;9.968;2022-09-09T12:40:00;98551.91;;;31.89;35.55
46506;BME280;32220;49.808;9.968;2022-09-09T12:42:30;98554.09;;;30.80;36.29
46506;BME280;32220;49.808;9.968;2022-09-09T12:45:00;98538.44;;;29.91;37.45
46506;BME280;32220;49.808;9.968;2022-09-09T12:47:36;98529.81;;;29.26;38.90
46506;BME280;32220;49.808;9.968;2022-09-09T12:50:15;98523.44;;;30.00;39.24
46506;BME280;32220;49.808;9.968;2022-09-09T12:52:46;98540.13;;;32.68;36.12
46506;BME280;32220;49.808;9.968;2022-09-09T12:55:19;98534.25;;;35.13;33.60
46506;BME280;32220;49.808;9.968;2022-09-09T12:57:48;98562.59;;;37.12;31.38
46506;BME280;32220;49.808;9.968;2022-09-09T13:00:20;98577.38;;;38.53;27.31
46506;BME280;32220;49.808;9.968;2022-09-09T13:02:50;98588.84;;;39.64;26.52
46506;BME280;32220;49.808;9.968;2022-09-09T13:05:21;98601.44;;;40.56;25.11
46506;BME280;32220;49.808;9.968;2022-09-09T13:07:51;98597.69;;;40.18;24.62
46506;BME280;32220;49.808;9.968;2022-09-09T13:10:25;98579.25;;;38.58;25.64
46506;BME280;32220;49.808;9.968;2022-09-09T13:12:55;98578.69;;;38.66;26.44
46506;BME280;32220;49.808;9.968;2022-09-09T13:15:26;98547.19;;;37.31;27.65
46506;BME280;32220;49.808;9.968;2022-09-09T13:17:57;98557.03;;;36.14;28.79
46506;BME280;32220;49.808;9.968;2022-09-09T13:20:27;98548.25;;;35.06;28.85
46506;BME280;32220;49.808;9.968;2022-09-09T13:22:58;98546.00;;;33.89;29.54
46506;BME280;32220;49.808;9.968;2022-09-09T13:25:27;98539.50;;;32.78;31.02
46506;BME280;32220;49.808;9.968;2022-09-09T13:27:58;98533.53;;;32.01;32.06
46506;BME280;32220;49.808;9.968;2022-09-09T13:30:29;98536.28;;;31.54;33.21
46506;BME280;32220;49.808;9.968;2022-09-09T13:33:03;98521.34;;;31.03;33.19
46506;BME280;32220;49.808;9.968;2022-09-09T13:35:32;98515.72;;;31.40;33.35
46506;BME280;32220;49.808;9.968;2022-09-09T13:38:08;98521.94;;;33.41;31.25